Time;durP1;ratioP1;P1;durP2;ratioP2;P2;SDS_P1;SDS_P2;PMS_P1;PMS_P2;Temp;Humidity;BMP_temperature;BMP_pressure;BME280_temperature;BME280_humidity;BME280_pressure;Samples;Min_cycle;Max_cycle;Signal;HPM_P1;HPM_P2
2022/12/11 00:00:22;;;;;;;10.93;10.00;;;;;;;;;;1041193;28;20044;-75
2022/12/11 00:00:53;;;;;;;12.13;10.90;;;;;;;;;;1039868;28;20397;-75
2022/12/11 00:01:24;;;;;;;9.48;6.18;;;;;;;;;;1041508;28;20021;-75
2022/12/11 00:01:54;;;;;;;8.90;7.60;;;;;;;;;;1041353;28;20025;-75
2022/12/11 00:02:25;;;;;;;15.48;11.98;;;;;;;;;;1041808;28;20037;-74
2022/12/11 00:02:55;;;;;;;12.93;11.65;;;;;;;;;;1041374;28;20472;-75
2022/12/11 00:03:26;;;;;;;9.98;9.15;;;;;;;;;;1041632;28;20017;-75
2022/12/11 00:03:56;;;;;;;10.15;9.15;;;;;;;;;;1042711;28;20033;-74
2022/12/11 00:04:27;;;;;;;8.60;6.85;;;;;;;;;;1041856;28;20047;-75
2022/12/11 00:04:57;;;;;;;7.65;7.05;;;;;;;;;;1039692;28;20496;-75
2022/12/11 00:05:28;;;;;;;12.63;11.43;;;;;;;;;;1041301;28;20020;-75
2022/12/11 00:05:59;;;;;;;8.15;6.40;;;;;;;;;;1041628;28;20025;-75
2022/12/11 00:06:29;;;;;;;11.45;8.55;;;;;;;;;;1041439;28;20131;-74
2022/12/11 00:07:00;;;;;;;15.43;8.10;;;;;;;;;;1041327;28;20032;-74
2022/12/11 00:07:30;;;;;;;11.88;9.43;;;;;;;;;;1041450;28;20021;-74
2022/12/11 00:08:01;;;;;;;12.25;10.35;;;;;;;;;;1041716;28;20082;-75
2022/12/11 00:08:31;;;;;;;17.05;11.93;;;;;;;;;;1037290;28;20026;-75
2022/12/11 00:09:02;;;;;;;15.88;10.35;;;;;;;;;;1040953;28;20558;-75
2022/12/11 00:09:32;;;;;;;5.88;5.38;;;;;;;;;;1039427;28;20532;-75
2022/12/11 00:10:03;;;;;;;9.95;9.02;;;;;;;;;;1039407;28;20053;-75
2022/12/11 00:10:34;;;;;;;13.15;10.02;;;;;;;;;;1038203;28;20500;-74
2022/12/11 00:11:07;;;;;;;12.95;7.43;;;;;;;;;;1038385;28;20053;-74
2022/12/11 00:11:37;;;;;;;7.57;6.20;;;;;;;;;;1041416;28;20025;-74
2022/12/11 00:12:08;;;;;;;9.63;8.73;;;;;;;;;;1037236;28;20824;-74
2022/12/11 00:12:38;;;;;;;18.92;8.52;;;;;;;;;;1033845;28;20437;-74
2022/12/11 00:13:09;;;;;;;12.82;11.80;;;;;;;;;;1037104;28;20026;-74
2022/12/11 00:13:40;;;;;;;7.50;4.95;;;;;;;;;;1033540;28;20046;-74
2022/12/11 00:14:10;;;;;;;8.82;7.93;;;;;;;;;;1037573;28;20021;-74
2022/12/11 00:14:41;;;;;;;15.98;9.48;;;;;;;;;;1041317;28;20559;-75
2022/12/11 00:15:11;;;;;;;11.50;6.55;;;;;;;;;;1041324;28;20025;-75
2022/12/11 00:15:42;;;;;;;15.25;12.93;;;;;;;;;;1041142;28;20029;-74
2022/12/11 00:16:14;;;;;;;5.20;4.70;;;;;;;;;;1041449;28;20044;-74
2022/12/11 00:16:46;;;;;;;14.93;10.60;;;;;;;;;;1041535;28;20507;-74
2022/12/11 00:17:17;;;;;;;17.67;11.75;;;;;;;;;;1041464;28;20036;-75
2022/12/11 00:17:47;;;;;;;14.02;9.80;;;;;;;;;;1041819;28;20029;-75
2022/12/11 00:18:18;;;;;;;7.15;6.30;;;;;;;;;;1041765;28;20021;-75
2022/12/11 00:18:48;;;;;;;7.65;7.03;;;;;;;;;;1040691;28;20024;-75
2022/12/11 00:19:19;;;;;;;8.23;7.63;;;;;;;;;;1041345;28;20017;-74
2022/12/11 00:19:50;;;;;;;9.93;9.13;;;;;;;;;;1041407;28;20095;-74
2022/12/11 00:20:20;;;;;;;11.63;10.35;;;;;;;;;;1041215;28;20047;-75
2022/12/11 00:20:51;;;;;;;7.28;6.78;;;;;;;;;;1041095;28;20032;-75
2022/12/11 00:21:21;;;;;;;7.75;7.07;;;;;;;;;;1041737;28;20086;-74
2022/12/11 00:21:52;;;;;;;20.55;11.90;;;;;;;;;;1041390;28;20025;-74
2022/12/11 00:22:23;;;;;;;7.72;7.00;;;;;;;;;;1041370;28;20025;-74
2022/12/11 00:22:53;;;;;;;10.25;9.23;;;;;;;;;;1041727;28;21592;-74
2022/12/11 00:23:24;;;;;;;6.93;6.35;;;;;;;;;;1042619;28;20025;-74
2022/12/11 00:23:54;;;;;;;15.43;7.75;;;;;;;;;;1041309;28;20033;-74
2022/12/11 00:24:25;;;;;;;16.00;7.05;;;;;;;;;;1041950;28;20021;-74
2022/12/11 00:24:55;;;;;;;7.85;7.10;;;;;;;;;;1042533;28;20047;-74
2022/12/11 00:25:26;;;;;;;10.55;8.98;;;;;;;;;;1040286;28;20147;-74
2022/12/11 00:25:57;;;;;;;7.55;6.97;;;;;;;;;;1040995;28;20025;-74
2022/12/11 00:26:28;;;;;;;9.20;6.82;;;;;;;;;;1036741;28;20107;-74
2022/12/11 00:26:58;;;;;;;4.93;4.55;;;;;;;;;;1036516;28;20056;-75
2022/12/11 00:27:29;;;;;;;14.32;9.80;;;;;;;;;;1033227;28;20046;-75
2022/12/11 00:27:59;;;;;;;9.35;8.48;;;;;;;;;;1035473;28;20109;-75
2022/12/11 00:28:30;;;;;;;16.35;12.70;;;;;;;;;;1039557;28;20021;-76
2022/12/11 00:29:00;;;;;;;7.60;7.07;;;;;;;;;;1035158;28;20037;-75
2022/12/11 00:29:31;;;;;;;11.52;8.48;;;;;;;;;;1039524;28;20028;-75
2022/12/11 00:30:02;;;;;;;8.15;7.40;;;;;;;;;;1042113;28;20131;-74
2022/12/11 00:30:33;;;;;;;11.55;10.40;;;;;;;;;;1041715;28;20472;-75
2022/12/11 00:31:04;;;;;;;9.90;8.35;;;;;;;;;;1040532;28;20017;-74
2022/12/11 00:31:35;;;;;;;6.80;6.13;;;;;;;;;;1041100;28;20476;-74
2022/12/11 00:32:06;;;;;;;15.85;11.70;;;;;;;;;;1041524;28;20029;-75
2022/12/11 00:32:37;;;;;;;10.85;9.88;;;;;;;;;;1041930;28;20149;-75
2022/12/11 00:33:08;;;;;;;11.38;9.20;;;;;;;;;;1042082;28;20017;-75
2022/12/11 00:33:39;;;;;;;17.42;15.23;;;;;;;;;;1036707;28;20112;-75
2022/12/11 00:34:10;;;;;;;8.82;8.00;;;;;;;;;;1034044;28;20470;-74
2022/12/11 00:34:41;;;;;;;11.40;9.80;;;;;;;;;;1033625;28;20568;-75
2022/12/11 00:35:12;;;;;;;14.15;10.45;;;;;;;;;;1035380;28;20073;-75
2022/12/11 00:35:44;;;;;;;16.65;8.93;;;;;;;;;;1037691;28;20025;-75
2022/12/11 00:36:16;;;;;;;14.32;9.30;;;;;;;;;;1037089;28;20024;-74
2022/12/11 00:36:47;;;;;;;8.13;7.47;;;;;;;;;;1032856;28;20025;-75
2022/12/11 00:37:17;;;;;;;15.23;9.57;;;;;;;;;;1033361;28;20511;-74
2022/12/11 00:37:48;;;;;;;10.82;8.10;;;;;;;;;;1033738;28;20449;-75
2022/12/11 00:38:19;;;;;;;10.38;7.80;;;;;;;;;;1037409;28;20545;-74
2022/12/11 00:38:50;;;;;;;27.52;10.05;;;;;;;;;;1036635;28;20476;-74
2022/12/11 00:39:21;;;;;;;6.85;6.32;;;;;;;;;;1041527;28;20479;-74
2022/12/11 00:39:51;;;;;;;6.15;5.65;;;;;;;;;;1042565;28;20668;-75
2022/12/11 00:40:22;;;;;;;18.67;9.10;;;;;;;;;;1041007;28;20031;-75
2022/12/11 00:40:56;;;;;;;11.07;9.82;;;;;;;;;;1036963;28;20096;-75
2022/12/11 00:41:27;;;;;;;10.77;9.70;;;;;;;;;;1036036;28;20093;-75
2022/12/11 00:41:58;;;;;;;8.38;7.47;;;;;;;;;;1035934;28;20044;-75
2022/12/11 00:42:28;;;;;;;12.02;8.73;;;;;;;;;;1037243;28;20036;-75
2022/12/11 00:42:59;;;;;;;10.32;9.35;;;;;;;;;;1040479;28;20048;-75
2022/12/11 00:43:30;;;;;;;12.18;10.90;;;;;;;;;;1041870;28;20123;-75
2022/12/11 00:44:00;;;;;;;9.25;4.40;;;;;;;;;;1042653;28;20044;-75
2022/12/11 00:44:31;;;;;;;9.38;8.60;;;;;;;;;;1040511;28;20485;-74
2022/12/11 00:45:02;;;;;;;15.35;8.18;;;;;;;;;;1041875;28;20027;-74
2022/12/11 00:45:36;;;;;;;7.72;7.07;;;;;;;;;;1041509;28;20037;-74
2022/12/11 00:46:07;;;;;;;11.93;10.68;;;;;;;;;;1038036;28;20028;-75
2022/12/11 00:46:41;;;;;;;22.75;8.50;;;;;;;;;;1039581;28;20028;-75
2022/12/11 00:47:11;;;;;;;13.63;7.85;;;;;;;;;;1041765;28;20029;-75
2022/12/11 00:47:42;;;;;;;11.65;7.63;;;;;;;;;;1041473;28;20071;-75
2022/12/11 00:48:13;;;;;;;10.18;7.82;;;;;;;;;;1041358;28;20036;-75
2022/12/11 00:48:45;;;;;;;7.68;7.05;;;;;;;;;;1041423;28;20049;-75
2022/12/11 00:49:15;;;;;;;8.52;7.80;;;;;;;;;;1040385;28;20440;-75
2022/12/11 00:49:46;;;;;;;8.88;6.85;;;;;;;;;;1041434;28;20032;-75
2022/12/11 00:50:16;;;;;;;8.27;7.43;;;;;;;;;;1040999;28;20724;-75
2022/12/11 00:50:47;;;;;;;9.32;8.57;;;;;;;;;;1041290;28;20025;-75
2022/12/11 00:51:17;;;;;;;19.17;9.00;;;;;;;;;;1041569;28;20028;-75
2022/12/11 00:51:48;;;;;;;9.02;8.15;;;;;;;;;;1041854;28;20063;-75
2022/12/11 00:52:18;;;;;;;5.60;5.20;;;;;;;;;;1041105;28;20029;-75
2022/12/11 00:52:49;;;;;;;7.00;6.30;;;;;;;;;;1041313;28;20051;-75
2022/12/11 00:53:19;;;;;;;5.60;5.20;;;;;;;;;;1041348;28;20032;-75
2022/12/11 00:53:50;;;;;;;8.60;7.85;;;;;;;;;;1041333;28;20029;-75
2022/12/11 00:54:21;;;;;;;11.43;10.18;;;;;;;;;;1041547;28;20024;-75
2022/12/11 00:54:51;;;;;;;14.75;8.45;;;;;;;;;;1041594;28;20538;-75
2022/12/11 00:55:22;;;;;;;6.90;6.28;;;;;;;;;;1041905;28;20330;-75
2022/12/11 00:55:52;;;;;;;9.25;5.90;;;;;;;;;;1041252;28;20533;-75
2022/12/11 00:56:24;;;;;;;7.20;6.68;;;;;;;;;;1041391;28;20468;-75
2022/12/11 00:56:54;;;;;;;14.80;7.63;;;;;;;;;;1041067;28;20115;-75
2022/12/11 00:57:25;;;;;;;12.32;8.50;;;;;;;;;;1041838;28;20021;-75
2022/12/11 00:57:57;;;;;;;8.38;7.57;;;;;;;;;;1041614;28;20025;-75
2022/12/11 00:58:27;;;;;;;7.65;6.95;;;;;;;;;;1041148;28;20025;-75
2022/12/11 00:58:58;;;;;;;8.13;7.43;;;;;;;;;;1040859;28;20471;-75
2022/12/11 00:59:28;;;;;;;13.02;7.07;;;;;;;;;;1041740;28;20024;-75
2022/12/11 00:59:59;;;;;;;8.50;7.70;;;;;;;;;;1041501;28;20028;-75
2022/12/11 01:00:30;;;;;;;6.47;6.03;;;;;;;;;;1040769;28;20099;-75
2022/12/11 01:01:11;;;;;;;16.33;12.20;;;;;;;;;;1039624;28;20025;-75
2022/12/11 01:01:41;;;;;;;5.65;5.25;;;;;;;;;;1041284;28;20056;-75
2022/12/11 01:02:12;;;;;;;16.80;7.78;;;;;;;;;;1041540;28;20034;-75
2022/12/11 01:02:42;;;;;;;11.73;8.32;;;;;;;;;;1041633;28;20029;-75
2022/12/11 01:03:13;;;;;;;51.13;18.13;;;;;;;;;;1041018;28;20080;-75
2022/12/11 01:03:44;;;;;;;13.27;9.75;;;;;;;;;;1041369;28;20537;-75
2022/12/11 01:04:15;;;;;;;7.72;7.07;;;;;;;;;;1042194;28;20462;-75
2022/12/11 01:04:45;;;;;;;9.90;8.93;;;;;;;;;;1041358;28;20032;-75
2022/12/11 01:05:16;;;;;;;8.07;7.10;;;;;;;;;;1041416;28;20028;-75
2022/12/11 01:05:50;;;;;;;11.18;7.55;;;;;;;;;;1041464;28;20017;-75
2022/12/11 01:06:22;;;;;;;12.10;8.48;;;;;;;;;;1041572;28;20064;-75
2022/12/11 01:06:53;;;;;;;9.73;8.98;;;;;;;;;;1040992;28;20495;-75
2022/12/11 01:07:23;;;;;;;9.32;7.90;;;;;;;;;;1040997;28;20033;-75
2022/12/11 01:07:54;;;;;;;7.28;6.28;;;;;;;;;;1041101;28;20026;-75
2022/12/11 01:08:25;;;;;;;11.32;8.77;;;;;;;;;;1041366;28;20435;-75
2022/12/11 01:10:33;;;;;;;10.55;9.55;;;;;;;;;;1039386;28;20043;-74
2022/12/11 01:11:05;;;;;;;8.65;7.70;;;;;;;;;;1039901;28;20045;-74
2022/12/11 01:11:36;;;;;;;7.75;6.90;;;;;;;;;;1041227;28;20021;-74
2022/12/11 01:12:06;;;;;;;11.05;10.10;;;;;;;;;;1040852;28;20049;-74
2022/12/11 01:12:37;;;;;;;23.70;4.57;;;;;;;;;;1041175;28;20036;-74
2022/12/11 01:13:07;;;;;;;5.88;5.25;;;;;;;;;;1041506;28;20055;-74
2022/12/11 01:13:39;;;;;;;17.77;8.02;;;;;;;;;;1041450;28;20477;-75
2022/12/11 01:14:10;;;;;;;6.13;5.68;;;;;;;;;;1041275;28;20680;-75
2022/12/11 01:14:41;;;;;;;14.18;11.32;;;;;;;;;;1041232;28;20032;-75
2022/12/11 01:15:11;;;;;;;5.57;5.07;;;;;;;;;;1041109;28;20504;-75
2022/12/11 01:15:43;;;;;;;9.00;7.63;;;;;;;;;;1040936;28;20021;-75
2022/12/11 01:16:14;;;;;;;7.57;6.95;;;;;;;;;;1041331;28;20423;-75
2022/12/11 01:16:45;;;;;;;17.23;9.95;;;;;;;;;;1040578;28;20021;-75
2022/12/11 01:17:16;;;;;;;16.80;10.15;;;;;;;;;;1041625;28;20025;-74
2022/12/11 01:17:47;;;;;;;13.48;7.85;;;;;;;;;;1041884;28;20116;-74
2022/12/11 01:18:17;;;;;;;11.85;10.65;;;;;;;;;;1041939;28;20029;-74
2022/12/11 01:18:48;;;;;;;21.55;5.97;;;;;;;;;;1041518;28;20017;-74
2022/12/11 01:19:19;;;;;;;11.90;9.93;;;;;;;;;;1041129;28;20063;-74
2022/12/11 01:19:49;;;;;;;6.68;6.18;;;;;;;;;;1039116;28;20028;-74
2022/12/11 01:20:20;;;;;;;10.77;7.13;;;;;;;;;;1039067;28;20025;-75
2022/12/11 01:20:51;;;;;;;9.70;8.18;;;;;;;;;;1039188;28;20108;-75
2022/12/11 01:21:22;;;;;;;16.75;6.63;;;;;;;;;;1041027;28;20052;-75
2022/12/11 01:21:53;;;;;;;8.63;7.90;;;;;;;;;;1041196;28;20029;-75
2022/12/11 01:22:23;;;;;;;14.23;5.10;;;;;;;;;;1040743;28;20057;-75
2022/12/11 01:22:55;;;;;;;17.52;7.15;;;;;;;;;;1041990;28;20475;-75
2022/12/11 01:23:26;;;;;;;10.20;9.38;;;;;;;;;;1040116;28;20021;-74
2022/12/11 01:23:56;;;;;;;10.05;9.30;;;;;;;;;;1041304;28;20029;-74
2022/12/11 01:24:27;;;;;;;9.35;8.57;;;;;;;;;;1041220;28;20024;-74
2022/12/11 01:24:58;;;;;;;19.40;11.15;;;;;;;;;;1042410;28;20052;-75
2022/12/11 01:25:28;;;;;;;3.63;3.33;;;;;;;;;;1041811;28;20020;-75
2022/12/11 01:26:05;;;;;;;5.50;5.13;;;;;;;;;;1041073;28;20032;-75
2022/12/11 01:26:36;;;;;;;26.85;11.48;;;;;;;;;;1042643;28;20101;-75
2022/12/11 01:27:07;;;;;;;4.40;4.00;;;;;;;;;;1041378;28;20044;-75
2022/12/11 01:27:38;;;;;;;7.85;7.25;;;;;;;;;;1041223;28;20052;-75
2022/12/11 01:28:08;;;;;;;12.63;8.23;;;;;;;;;;1039057;28;20025;-75
2022/12/11 01:28:39;;;;;;;5.95;5.45;;;;;;;;;;1039029;28;20030;-75
2022/12/11 01:29:10;;;;;;;5.43;4.97;;;;;;;;;;1039239;28;20025;-75
2022/12/11 01:29:40;;;;;;;9.55;7.25;;;;;;;;;;1041044;28;20059;-75
2022/12/11 01:30:12;;;;;;;6.95;6.35;;;;;;;;;;1041160;28;20022;-75
2022/12/11 01:30:42;;;;;;;10.38;8.77;;;;;;;;;;1041553;28;20013;-75
2022/12/11 01:31:15;;;;;;;6.38;5.90;;;;;;;;;;1040276;28;20021;-75
2022/12/11 01:31:45;;;;;;;13.60;6.50;;;;;;;;;;1041908;28;20025;-75
2022/12/11 01:32:16;;;;;;;12.15;9.68;;;;;;;;;;1041225;28;20021;-75
2022/12/11 01:32:47;;;;;;;5.38;5.00;;;;;;;;;;1040942;28;20037;-75
2022/12/11 01:33:17;;;;;;;4.95;4.63;;;;;;;;;;1041112;28;20028;-75
2022/12/11 01:33:48;;;;;;;11.18;6.10;;;;;;;;;;1041274;28;20417;-75
2022/12/11 01:34:19;;;;;;;10.57;6.55;;;;;;;;;;1036277;28;20417;-75
2022/12/11 01:34:49;;;;;;;11.57;8.23;;;;;;;;;;1038302;28;20025;-75
2022/12/11 01:35:20;;;;;;;6.53;5.88;;;;;;;;;;1041658;28;20017;-74
2022/12/11 01:35:50;;;;;;;10.63;7.15;;;;;;;;;;1042293;28;20013;-74
2022/12/11 01:36:22;;;;;;;14.50;7.70;;;;;;;;;;1040914;28;20032;-74
2022/12/11 01:36:53;;;;;;;10.35;9.43;;;;;;;;;;1041173;28;20566;-75
2022/12/11 01:37:23;;;;;;;7.93;7.22;;;;;;;;;;1040960;28;20042;-75
2022/12/11 01:37:54;;;;;;;10.32;9.27;;;;;;;;;;1040994;28;20037;-74
2022/12/11 01:38:25;;;;;;;13.57;4.70;;;;;;;;;;1041393;28;20029;-74
2022/12/11 01:38:55;;;;;;;23.88;9.88;;;;;;;;;;1042190;28;20025;-74
2022/12/11 01:39:26;;;;;;;12.95;11.65;;;;;;;;;;1042249;28;20021;-74
2022/12/11 01:39:56;;;;;;;10.07;9.18;;;;;;;;;;1041183;28;20546;-75
2022/12/11 01:40:27;;;;;;;5.65;5.13;;;;;;;;;;1040081;28;20530;-74
2022/12/11 01:40:57;;;;;;;7.30;6.72;;;;;;;;;;1041541;28;20029;-74
2022/12/11 01:41:28;;;;;;;10.10;7.53;;;;;;;;;;1041343;28;20025;-75
2022/12/11 01:42:00;;;;;;;9.07;8.38;;;;;;;;;;1041986;28;20076;-75
2022/12/11 01:42:30;;;;;;;6.60;5.97;;;;;;;;;;1041157;28;20567;-74
2022/12/11 01:43:01;;;;;;;6.57;6.07;;;;;;;;;;1041029;28;20025;-75
2022/12/11 01:43:31;;;;;;;8.40;6.45;;;;;;;;;;1041647;28;20115;-75
2022/12/11 01:44:04;;;;;;;7.30;6.57;;;;;;;;;;1041767;28;20033;-74
2022/12/11 01:44:35;;;;;;;6.97;6.05;;;;;;;;;;1040996;28;20025;-74
2022/12/11 01:45:21;;;;;;;5.35;4.97;;;;;;;;;;1041212;28;20386;-75
2022/12/11 01:45:51;;;;;;;9.60;8.73;;;;;;;;;;1039590;28;20362;-75
2022/12/11 01:46:22;;;;;;;9.90;8.10;;;;;;;;;;1041912;28;20022;-75
2022/12/11 01:46:53;;;;;;;6.85;6.13;;;;;;;;;;1040755;28;20388;-75
2022/12/11 01:47:23;;;;;;;7.30;6.78;;;;;;;;;;1041248;28;20560;-75
2022/12/11 01:48:01;;;;;;;11.02;9.63;;;;;;;;;;1041170;28;20036;-75
2022/12/11 01:48:31;;;;;;;9.13;8.27;;;;;;;;;;1041070;28;20024;-75
2022/12/11 01:49:04;;;;;;;9.43;8.70;;;;;;;;;;1041192;28;20031;-75
2022/12/11 01:49:35;;;;;;;15.38;12.85;;;;;;;;;;1040536;28;20024;-75
2022/12/11 01:50:06;;;;;;;9.07;8.32;;;;;;;;;;1041438;28;20031;-75
2022/12/11 01:50:38;;;;;;;5.38;5.00;;;;;;;;;;1040894;28;20041;-75
2022/12/11 01:51:09;;;;;;;8.70;7.80;;;;;;;;;;1041033;28;20503;-75
2022/12/11 01:51:43;;;;;;;7.47;6.93;;;;;;;;;;1036807;28;20084;-75
2022/12/11 01:52:15;;;;;;;5.18;4.68;;;;;;;;;;1037048;28;20084;-75
2022/12/11 01:52:48;;;;;;;10.10;7.70;;;;;;;;;;1033862;28;20022;-74
2022/12/11 01:53:21;;;;;;;8.52;7.82;;;;;;;;;;1037243;28;20425;-75
2022/12/11 01:53:56;;;;;;;5.20;4.90;;;;;;;;;;1033883;28;20026;-74
2022/12/11 01:54:27;;;;;;;11.02;9.90;;;;;;;;;;1035998;28;20441;-74
2022/12/11 01:54:57;;;;;;;7.10;6.47;;;;;;;;;;1038521;28;20026;-75
2022/12/11 01:55:28;;;;;;;7.82;6.55;;;;;;;;;;1039961;28;20588;-75
2022/12/11 01:55:59;;;;;;;6.53;5.97;;;;;;;;;;1042373;28;20111;-75
2022/12/11 01:56:31;;;;;;;11.93;10.60;;;;;;;;;;1038608;28;20026;-75
2022/12/11 01:57:03;;;;;;;20.25;9.50;;;;;;;;;;1036775;28;20092;-75
2022/12/11 01:57:38;;;;;;;5.78;5.28;;;;;;;;;;1042144;28;20523;-75
2022/12/11 01:58:09;;;;;;;21.58;8.15;;;;;;;;;;1042806;28;20052;-74
2022/12/11 01:58:46;;;;;;;6.22;5.80;;;;;;;;;;1042217;28;20029;-75
2022/12/11 01:59:18;;;;;;;10.10;7.32;;;;;;;;;;1042380;28;20031;-75
2022/12/11 01:59:48;;;;;;;8.65;7.57;;;;;;;;;;1042037;28;20025;-75
2022/12/11 02:00:20;;;;;;;9.52;8.18;;;;;;;;;;1040773;28;20111;-75
2022/12/11 02:00:51;;;;;;;7.28;4.97;;;;;;;;;;1040338;28;20017;-75
2022/12/11 02:01:28;;;;;;;5.43;5.03;;;;;;;;;;1041868;28;20136;-75
2022/12/11 02:02:07;;;;;;;5.38;4.68;;;;;;;;;;1041812;28;20049;-75
2022/12/11 02:02:37;;;;;;;5.38;4.93;;;;;;;;;;1042504;28;20499;-75
2022/12/11 02:03:13;;;;;;;8.35;7.75;;;;;;;;;;1042770;28;20020;-75
2022/12/11 02:03:44;;;;;;;6.47;6.05;;;;;;;;;;1042815;28;20028;-75
2022/12/11 02:04:14;;;;;;;8.65;4.93;;;;;;;;;;1042082;28;20090;-75
2022/12/11 02:04:46;;;;;;;6.55;6.03;;;;;;;;;;1042388;28;20524;-75
2022/12/11 02:05:16;;;;;;;5.70;5.13;;;;;;;;;;1042255;28;20028;-75
2022/12/11 02:05:47;;;;;;;16.52;13.60;;;;;;;;;;1041923;28;20112;-75
2022/12/11 02:06:31;;;;;;;8.32;7.60;;;;;;;;;;1042052;28;20136;-75
2022/12/11 02:07:02;;;;;;;21.05;8.75;;;;;;;;;;1041969;28;20555;-74
2022/12/11 02:07:41;;;;;;;8.32;6.75;;;;;;;;;;1041795;28;20535;-74
2022/12/11 02:08:12;;;;;;;10.20;7.55;;;;;;;;;;1040803;28;20023;-74
2022/12/11 02:08:42;;;;;;;8.80;7.25;;;;;;;;;;1042744;28;20020;-75
2022/12/11 02:09:18;;;;;;;8.48;7.70;;;;;;;;;;1042347;28;20022;-75
2022/12/11 02:09:48;;;;;;;11.48;7.03;;;;;;;;;;1042131;28;20055;-75
2022/12/11 02:10:20;;;;;;;7.03;6.38;;;;;;;;;;1041267;28;20584;-75
2022/12/11 02:11:10;;;;;;;18.98;9.63;;;;;;;;;;1041507;28;20033;-75
2022/12/11 02:11:54;;;;;;;14.43;11.15;;;;;;;;;;1042541;28;20021;-74
2022/12/11 02:12:38;;;;;;;9.23;8.43;;;;;;;;;;1042464;28;20051;-74
2022/12/11 02:13:23;;;;;;;7.70;7.10;;;;;;;;;;1040825;28;20022;-75
2022/12/11 02:14:01;;;;;;;7.13;6.40;;;;;;;;;;1041706;28;20128;-75
2022/12/11 02:14:38;;;;;;;9.55;8.75;;;;;;;;;;1042140;28;20024;-75
2022/12/11 02:15:18;;;;;;;12.77;6.82;;;;;;;;;;1042307;28;20025;-75
2022/12/11 02:15:54;;;;;;;7.68;7.07;;;;;;;;;;1042408;28;20049;-75
2022/12/11 02:16:32;;;;;;;11.13;6.78;;;;;;;;;;1042273;28;20123;-75
2022/12/11 02:17:02;;;;;;;13.45;11.20;;;;;;;;;;1042655;28;20186;-75
2022/12/11 02:17:48;;;;;;;7.28;6.53;;;;;;;;;;1042059;28;20029;-75
2022/12/11 02:18:35;;;;;;;15.55;6.25;;;;;;;;;;1041867;28;20116;-75
2022/12/11 02:19:24;;;;;;;7.40;6.90;;;;;;;;;;1041378;28;20027;-74
2022/12/11 02:20:01;;;;;;;12.32;8.98;;;;;;;;;;1042126;28;20021;-74
2022/12/11 02:20:37;;;;;;;22.40;7.75;;;;;;;;;;1041921;28;20424;-75
2022/12/11 02:21:29;;;;;;;23.02;12.90;;;;;;;;;;1041287;28;20079;-75
2022/12/11 02:22:02;;;;;;;7.85;7.35;;;;;;;;;;1041355;28;20112;-75
2022/12/11 02:22:41;;;;;;;8.05;7.43;;;;;;;;;;1041864;28;20539;-75
2022/12/11 02:23:12;;;;;;;10.43;7.40;;;;;;;;;;1041814;28;20447;-75
2022/12/11 02:23:45;;;;;;;20.58;8.70;;;;;;;;;;1041980;28;20331;-75
2022/12/11 02:24:19;;;;;;;13.85;7.82;;;;;;;;;;1039849;28;20436;-75
2022/12/11 02:25:00;;;;;;;9.60;8.63;;;;;;;;;;1035526;28;20529;-75
2022/12/11 02:25:57;;;;;;;9.82;7.57;;;;;;;;;;1036250;28;20030;-74
2022/12/11 02:26:53;;;;;;;9.13;8.32;;;;;;;;;;1025472;28;20118;-75
2022/12/11 02:27:36;;;;;;;12.45;7.35;;;;;;;;;;1038593;28;20164;-75
2022/12/11 02:28:10;;;;;;;8.80;5.75;;;;;;;;;;1041011;28;20481;-75
2022/12/11 02:28:48;;;;;;;7.40;6.80;;;;;;;;;;1041949;28;20051;-75
2022/12/11 02:29:47;;;;;;;10.05;9.23;;;;;;;;;;1041801;28;20026;-75
2022/12/11 02:30:18;;;;;;;10.77;7.20;;;;;;;;;;1029865;28;20027;-74
2022/12/11 02:30:51;;;;;;;6.88;6.28;;;;;;;;;;1037362;28;20565;-75
2022/12/11 02:31:37;;;;;;;17.00;11.95;;;;;;;;;;1037490;28;20026;-75
2022/12/11 02:32:20;;;;;;;12.43;6.80;;;;;;;;;;1040357;28;20105;-75
2022/12/11 02:32:50;;;;;;;7.88;6.45;;;;;;;;;;1041075;28;20106;-75
2022/12/11 02:33:24;;;;;;;8.15;7.32;;;;;;;;;;1039576;28;20040;-75
2022/12/11 02:33:55;;;;;;;9.25;8.35;;;;;;;;;;1040061;28;20081;-75
2022/12/11 02:34:26;;;;;;;22.23;11.25;;;;;;;;;;1040124;28;20027;-75
2022/12/11 02:35:01;;;;;;;14.95;7.28;;;;;;;;;;1041433;28;20507;-75
2022/12/11 02:35:38;;;;;;;11.60;8.32;;;;;;;;;;1041911;28;20469;-74
2022/12/11 02:36:09;;;;;;;7.22;6.72;;;;;;;;;;1041673;28;20082;-75
2022/12/11 02:36:42;;;;;;;6.68;6.05;;;;;;;;;;1041829;28;20122;-75
2022/12/11 02:37:15;;;;;;;7.65;7.05;;;;;;;;;;1040092;28;20171;-75
2022/12/11 02:37:47;;;;;;;10.07;7.88;;;;;;;;;;1042021;28;20365;-75
2022/12/11 02:38:27;;;;;;;12.77;8.77;;;;;;;;;;1041815;28;20018;-75
2022/12/11 02:39:00;;;;;;;12.57;8.95;;;;;;;;;;1041937;28;20504;-75
2022/12/11 02:39:32;;;;;;;11.23;10.13;;;;;;;;;;1042202;28;20022;-75
2022/12/11 02:40:05;;;;;;;11.02;7.28;;;;;;;;;;1041993;28;20025;-75
2022/12/11 02:40:38;;;;;;;11.80;9.32;;;;;;;;;;1038856;28;20083;-75
2022/12/11 02:41:10;;;;;;;12.68;10.07;;;;;;;;;;1041452;28;20484;-74
2022/12/11 02:41:42;;;;;;;10.18;7.25;;;;;;;;;;1042132;28;20025;-74
2022/12/11 02:42:15;;;;;;;8.48;7.85;;;;;;;;;;1041580;28;20101;-74
2022/12/11 02:42:46;;;;;;;26.77;12.00;;;;;;;;;;1042147;28;20021;-75
2022/12/11 02:43:18;;;;;;;8.57;7.85;;;;;;;;;;1041709;28;20031;-75
2022/12/11 02:43:49;;;;;;;7.75;6.20;;;;;;;;;;1041774;28;20116;-74
2022/12/11 02:44:28;;;;;;;9.60;8.90;;;;;;;;;;1042030;28;20025;-75
2022/12/11 02:44:59;;;;;;;7.97;7.35;;;;;;;;;;1041606;28;20025;-75
2022/12/11 02:45:31;;;;;;;7.75;7.15;;;;;;;;;;1041858;28;20025;-75
2022/12/11 02:46:03;;;;;;;15.13;8.13;;;;;;;;;;1041769;28;20476;-75
2022/12/11 02:46:34;;;;;;;14.65;10.25;;;;;;;;;;1041305;28;20017;-74
2022/12/11 02:47:06;;;;;;;10.57;9.38;;;;;;;;;;1041487;28;20021;-75
2022/12/11 02:47:38;;;;;;;14.02;8.52;;;;;;;;;;1042058;28;20029;-75
2022/12/11 02:48:10;;;;;;;7.65;7.00;;;;;;;;;;1042060;28;20048;-75
2022/12/11 02:48:41;;;;;;;15.50;13.23;;;;;;;;;;1041724;28;20072;-75
2022/12/11 02:49:12;;;;;;;7.90;7.38;;;;;;;;;;1040278;28;20034;-75
2022/12/11 02:49:44;;;;;;;8.48;6.40;;;;;;;;;;1041401;28;20048;-75
2022/12/11 02:50:17;;;;;;;16.83;13.50;;;;;;;;;;1041766;28;20120;-75
2022/12/11 02:50:50;;;;;;;11.65;9.35;;;;;;;;;;1041930;28;20026;-75
2022/12/11 02:51:24;;;;;;;6.40;5.95;;;;;;;;;;1040902;28;20542;-74
2022/12/11 02:51:55;;;;;;;9.00;8.05;;;;;;;;;;1041715;28;20071;-75
2022/12/11 02:52:26;;;;;;;6.05;5.63;;;;;;;;;;1041633;28;20025;-75
2022/12/11 02:52:59;;;;;;;8.27;6.40;;;;;;;;;;1040981;28;20025;-75
2022/12/11 02:53:31;;;;;;;10.75;9.85;;;;;;;;;;1041703;28;20022;-74
2022/12/11 02:54:02;;;;;;;10.32;9.32;;;;;;;;;;1041596;28;20020;-74
2022/12/11 02:54:35;;;;;;;11.45;10.43;;;;;;;;;;1041858;28;20026;-75
2022/12/11 02:55:07;;;;;;;6.30;5.75;;;;;;;;;;1040870;28;20115;-75
2022/12/11 02:55:39;;;;;;;13.60;5.45;;;;;;;;;;1039814;28;20024;-77
2022/12/11 02:56:11;;;;;;;7.63;7.03;;;;;;;;;;1041930;28;20438;-74
2022/12/11 02:56:51;;;;;;;11.52;8.85;;;;;;;;;;1041573;28;20477;-74
2022/12/11 02:57:21;;;;;;;;;;;;;;;;;;1041497;28;20117;-76
2022/12/11 02:58:04;;;;;;;13.85;9.20;;;;;;;;;;1041701;28;20388;-74
2022/12/11 02:58:36;;;;;;;16.70;11.48;;;;;;;;;;1040687;28;20565;-74
2022/12/11 02:59:15;;;;;;;11.95;10.70;;;;;;;;;;1042888;28;20018;-74
2022/12/11 02:59:46;;;;;;;13.40;7.47;;;;;;;;;;1042354;28;20083;-74
2022/12/11 03:00:17;;;;;;;14.07;12.50;;;;;;;;;;1041941;28;20428;-74
2022/12/11 03:00:48;;;;;;;5.40;5.00;;;;;;;;;;1036910;28;20443;-74
2022/12/11 03:01:18;;;;;;;7.40;5.85;;;;;;;;;;1037313;28;20049;-74
2022/12/11 03:01:49;;;;;;;13.63;8.30;;;;;;;;;;1036734;28;20024;-76
2022/12/11 03:02:20;;;;;;;14.00;11.52;;;;;;;;;;1041778;28;20033;-74
2022/12/11 03:02:50;;;;;;;11.48;10.55;;;;;;;;;;1041511;28;20029;-73
2022/12/11 03:03:21;;;;;;;7.95;7.40;;;;;;;;;;1041843;28;20048;-73
2022/12/11 03:03:52;;;;;;;9.27;8.20;;;;;;;;;;1042075;28;20500;-73
2022/12/11 03:04:23;;;;;;;10.23;9.30;;;;;;;;;;1042159;28;20025;-76
2022/12/11 03:04:56;;;;;;;16.58;11.02;;;;;;;;;;1041212;28;20567;-74
2022/12/11 03:05:26;;;;;;;11.10;9.98;;;;;;;;;;1042092;28;20022;-74
2022/12/11 03:05:57;;;;;;;5.55;5.05;;;;;;;;;;1040541;28;20028;-74
2022/12/11 03:06:36;;;;;;;9.82;9.10;;;;;;;;;;1041564;28;20381;-74
2022/12/11 03:07:12;;;;;;;31.38;12.70;;;;;;;;;;1041513;28;20027;-74
2022/12/11 03:07:43;;;;;;;90.65;16.02;;;;;;;;;;1041243;28;20025;-74
2022/12/11 03:08:16;;;;;;;10.20;9.30;;;;;;;;;;1039220;28;20022;-74
2022/12/11 03:08:50;;;;;;;12.45;10.48;;;;;;;;;;1040486;28;20501;-75
2022/12/11 03:09:21;;;;;;;11.98;8.55;;;;;;;;;;1039518;28;20021;-74
2022/12/11 03:09:51;;;;;;;12.88;11.60;;;;;;;;;;1039897;28;20037;-74
2022/12/11 03:10:22;;;;;;;9.82;8.18;;;;;;;;;;1038173;28;20025;-75
2022/12/11 03:10:53;;;;;;;5.90;5.47;;;;;;;;;;1035030;28;20482;-75
2022/12/11 03:11:23;;;;;;;12.23;8.07;;;;;;;;;;1037784;28;20026;-75
2022/12/11 03:11:54;;;;;;;12.32;11.13;;;;;;;;;;1037767;28;20489;-76
2022/12/11 03:12:28;;;;;;;8.43;7.55;;;;;;;;;;1041879;28;20470;-75
2022/12/11 03:12:59;;;;;;;7.63;6.90;;;;;;;;;;1041815;28;20060;-75
2022/12/11 03:13:30;;;;;;;6.03;5.63;;;;;;;;;;1042063;28;20040;-75
2022/12/11 03:14:04;;;;;;;12.30;10.30;;;;;;;;;;1042066;28;20048;-75